Jepson Prairie Reserve, California Weather observations

Data are for 10 minute period ending at time listed.
 Day   Time   Solar   Ave.   Ave.  Ave.  Vector  Max.   Baro.   Total    
  of    of     Rad.   Air    Rel.  Wind   Wind   Wind  Press.  Precip.   
Year   Day            Temp.  Hum.  Speed  Dir.   Gust                    
2015   (PST)  Kw/m2    F      %     mph   deg.    mph    mb.     in.     
-------------------------------------------------------------------------
 208    9:10   0.68   82.2    34   22.3   339    27.0   1011.2    0.00 
 208    9:20   0.70   83.2    34   19.0   340    26.7   1011.2    0.00 
 208    9:30   0.73   83.6    35   15.1   353    21.8   1011.2    0.00 
 208    9:40   0.76   83.4    36   16.4     4    21.0   1011.2    0.00 
 208    9:50   0.78   83.5    36   16.3     2    20.9   1011.2    0.00 
 208   10:00   0.80   84.1    36   15.5   357    21.0   1011.2    0.00 
 208   10:10   0.82   84.6    35   13.6   358    17.9   1011.2    0.00 
 208   10:20   0.84   85.3    34   14.4   358    19.3   1011.2    0.00 
 208   10:30   0.85   85.4    34   14.3   359    20.6   1011.2    0.00 
 208   10:40   0.87   86.1    34   13.8    10    18.9   1011.2    0.00 
 208   10:50   0.88   87.0    33   12.9     5    19.6   1010.8    0.00 
 208   11:00   0.89   87.5    33   11.1     1    15.6   1010.8    0.00 
 208   11:10   0.90   87.8    33   10.3   357    16.0   1010.8    0.00 
 208   11:20   0.91   88.3    32    8.8   351    14.6   1010.8    0.00 
 208   11:30   0.91   89.1    30    9.9   319    17.0   1010.8    0.00 
 208   11:40   0.93   89.2    30   12.1   336    17.3   1010.8    0.00 
 208   11:50   0.93   89.6    29   11.6   351    16.0   1010.5    0.00 
 208   12:00   0.94   90.7    28   13.3   348    19.4   1010.5    0.00 
 208   12:10   0.94   90.9    28   11.4   347    18.2   1010.2    0.00 
 208   12:20   0.94   91.4    27   12.7   334    18.6   1010.2    0.00 
 208   12:30   0.94   92.0    26   13.3   338    22.1   1010.2    0.00 
 208   12:40   0.94   92.3    26   11.5   345    18.2   1010.2    0.00 
 208   12:50   0.94   92.5    26   12.1   347    18.0   1010.2    0.00 
 208   13:00   0.93   93.4    25   10.8   347    17.5   1010.2    0.00 
 208   13:10   0.92   93.3    25    9.5   341    13.8   1010.2    0.00 
 208   13:20   0.91   93.8    24    9.5   334    14.2   1010.2    0.00 
 208   13:30   0.91   94.5    24    8.7   346    14.0   1010.2    0.00 
 208   13:40   0.89   95.2    24    7.5   345    14.3   1009.8    0.00 
 208   13:50   0.88   97.4    23    8.8   327    14.4   1009.8    0.00 
 208   14:00   0.86   98.6    22    8.5   322    12.7   1009.8    0.00 
 208   14:10   0.85   96.0    20    5.2   292    11.9   1009.8    0.00 
 208   14:20   0.83   98.2    22    6.8   340    13.7   1009.8    0.00 
 208   14:30   0.81  100.9    23    7.0   301    12.9   1009.5    0.00 
 208   14:40   0.79  100.1    23    7.5   350    12.6   1009.5    0.00 
 208   14:50   0.76   99.3    22   10.3   326    18.0   1009.5    0.00 
 208   15:00   0.74   98.5    21    5.5   289    13.4   1009.1    0.00 
 208   15:10   0.72  102.8    22    4.7   259    11.5   1009.1    0.00 
 208   15:20   0.69   99.1    20    6.2   277    14.7   1009.1    0.00 
 208   15:30   0.67  100.2    19    2.9   278     8.5   1009.1    0.00 
 208   15:40   0.63   98.8    21    7.7   246    13.7   1009.1    0.00 
 208   15:50   0.60   98.0    22   12.4   250    19.5   1008.8    0.00 
 208   16:00   0.57   98.1    22   11.4   249    17.8   1008.8    0.00 
 208   16:10   0.55   97.7    23   13.9   241    22.4   1008.8    0.00 
 208   16:20   0.51   99.6    25   14.3   244    19.4   1008.8    0.00 
 208   16:30   0.48   97.1    25   15.3   232    21.7   1008.8    0.00 
 208   16:40   0.45   94.9    24   16.6   238    20.8   1008.5    0.00 
 208   16:50   0.42   93.3    24   18.4   234    22.8   1008.5    0.00 
 208   17:00   0.39   92.6    24   18.6   227    24.7   1008.5    0.00 
 208   17:10   0.34   91.8    25   20.8   224    24.7   1008.5    0.00 
 208   17:20   0.32   91.4    25   20.6   229    25.3   1008.1    0.00 
 208   17:30   0.29   91.6    26   20.1   230    25.4   1008.1    0.00 
 208   17:40   0.26   91.0    26   20.6   231    24.8   1008.1    0.00 
 208   17:50   0.23   90.0    27   20.7   230    24.9   1008.1    0.00 
 208   18:00   0.20   88.8    26   20.6   231    25.3   1007.8    0.00 
 208   18:10   0.17   88.2    27   19.2   232    24.8   1007.8    0.00 
 208   18:20   0.14   87.3    27   19.3   230    23.8   1007.8    0.00 
 208   18:30   0.11   86.4    28   18.4   227    22.7   1007.8    0.00 
 208   18:40   0.08   85.9    28   17.3   229    22.4   1007.8    0.00 
 208   18:50   0.06   85.2    28   15.7   226    20.0   1007.8    0.00 
 208   19:00   0.04   84.2    28   15.0   224    18.7   1007.8    0.00 
 208   19:10   0.02   83.1    29   14.0   219    17.8   1007.8    0.00 
 208   19:20   0.01   81.7    31   13.4   208    17.2   1007.8    0.00 
 208   19:30   0.00   79.9    34   13.3   200    17.0   1007.8    0.00 
 208   19:40   0.00   79.4    34   14.0   211    16.7   1007.8    0.00 
 208   19:50   0.00   78.9    34   12.5   199    14.9   1007.8    0.00 
 208   20:00   0.00   77.6    36   12.4   202    15.2   1007.8    0.00 
 208   20:10   0.00   77.5    36   13.6   212    16.7   1008.1    0.00 
 208   20:20   0.00   77.2    36   13.4   210    16.2   1008.1    0.00 
 208   20:30   0.00   75.9    38   12.6   210    15.7   1008.5    0.00 
 208   20:40   0.00   74.9    39   12.3   203    16.3   1008.5    0.00 
 208   20:50   0.00   74.5    41   12.7   209    17.0   1008.5    0.00 
 208   21:00   0.00   73.7    42   12.3   206    15.5   1008.5    0.00 
 208   21:10   0.00   73.2    43   11.7   206    15.0   1008.8    0.00 
 208   21:20   0.00   72.5    44   11.4   207    14.6   1008.8    0.00 
 208   21:30   0.00   72.7    45   12.6   204    15.1   1008.8    0.00 
 208   21:40   0.00   73.1    46   12.1   205    14.8   1008.8    0.00 
 208   21:50   0.00   72.8    47   12.2   207    14.7   1008.8    0.00 
 208   22:00   0.00   72.4    49   11.5   206    13.8   1008.8    0.00 
 208   22:10   0.00   72.0    50   11.4   206    13.7   1008.8    0.00 
 208   22:20   0.00   71.1    52   10.8   207    12.7   1008.8    0.00 
 208   22:30   0.00   71.3    49   10.6   206    13.2   1008.8    0.00 
 208   22:40   0.00   71.0    52   10.8   212    12.6   1008.8    0.00 
 208   22:50   0.00   70.3    52    9.9   212    12.1   1008.5    0.00 
 208   23:00   0.00   70.3    54   10.6   212    12.3   1008.5    0.00 
 208   23:10   0.00   70.2    54   10.3   213    12.3   1008.8    0.00 
 208   23:20   0.00   69.7    56    9.6   210    11.5   1008.8    0.00 
 208   23:30   0.00   69.3    61   11.3   209    13.5   1008.8    0.00 
 208   23:40   0.00   68.2    61   10.7   212    14.1   1008.5    0.00 
 208   23:50   0.00   68.6    57   11.9   213    14.8   1008.5    0.00 
 209    0:00   0.00   68.6    56   11.0   216    12.8   1008.5    0.00 
 209    0:10   0.00   68.0    58   10.8   217    12.4   1008.5    0.00 
 209    0:20   0.00   68.4    59   11.1   214    13.2   1008.5    0.00 
 209    0:30   0.00   68.2    57   11.4   215    13.7   1008.5    0.00 
 209    0:40   0.00   68.1    59   10.6   217    13.2   1008.1    0.00 
 209    0:50   0.00   67.7    60   10.5   219    12.9   1008.1    0.00 
 209    1:00   0.00   67.7    61   10.9   214    12.7   1008.1    0.00 
 209    1:10   0.00   67.4    62   11.0   216    12.6   1008.5    0.00 
 209    1:20   0.00   67.5    63    8.3   213    10.2   1008.5    0.00 
 209    1:30   0.00   69.9    63    8.8   210    14.7   1008.1    0.00 
 209    1:40   0.00   69.4    61   11.4   197    15.3   1008.1    0.00 
 209    1:50   0.00   69.8    66   10.3   207    13.8   1008.1    0.00 
 209    2:00   0.00   70.6    68   11.7   208    15.6   1008.1    0.00 
 209    2:10   0.00   69.2    67   11.9   205    15.8   1008.1    0.00 
 209    2:20   0.00   68.3    70    9.2   213    12.9   1008.5    0.00 
 209    2:30   0.00   68.0    72   12.3   206    15.4   1008.1    0.00 
 209    2:40   0.00   67.4    74   10.5   215    16.7   1008.1    0.00 
 209    2:50   0.00   67.4    75   11.9   208    16.1   1008.1    0.00 
 209    3:00   0.00   67.1    75    8.6   221    13.9   1008.5    0.00 
 209    3:10   0.00   66.7    75    8.0   216    10.5   1008.5    0.00 
 209    3:20   0.00   66.5    75    8.8   212    11.1   1008.5    0.00 
 209    3:30   0.00   66.7    75    8.6   219    11.5   1008.5    0.00 
 209    3:40   0.00   66.5    76    8.9   217    13.5   1008.5    0.00 
 209    3:50   0.00   66.8    76    8.3   217    13.7   1008.5    0.00 
 209    4:00   0.00   66.2    78    8.9   218    13.6   1008.5    0.00 
 209    4:10   0.00   66.1    78    7.1   218    13.2   1008.5    0.00 
 209    4:20   0.00   66.5    79    5.1   213     8.1   1008.5    0.00 
 209    4:30   0.00   69.3    81    4.9   218     9.1   1008.8    0.00 
 209    4:40   0.00   70.6    82    7.7   213    10.6   1008.8    0.00 
 209    4:50   0.00   70.6    81    8.0   213    11.0   1008.8    0.00 
 209    5:00   0.00   72.2    81    6.3   202    10.2   1008.8    0.00 
 209    5:10   0.00   70.1    81    5.5   224     7.9   1008.8    0.00 
 209    5:20   0.01   70.7    81    5.8   215     7.4   1008.8    0.00 
 209    5:30   0.03   69.3    80    6.9   210     8.3   1009.1    0.00 
 209    5:40   0.05   68.2    79    5.7   212     7.6   1009.1    0.00 
 209    5:50   0.07   68.0    79    5.7   219     7.8   1009.1    0.00 
 209    6:00   0.10   68.8    77    7.3   216    10.8   1009.1    0.00 
 209    6:10   0.13   69.7    74    6.1   224     7.9   1009.5    0.00 
 209    6:20   0.16   71.3    73    5.7   222     7.6   1009.5    0.00 
 209    6:30   0.19   74.3    72    5.1   214     7.1   1009.5    0.00 
 209    6:40   0.22   75.6    68    6.0   217     7.7   1009.5    0.00 
 209    6:50   0.26   77.0    65    5.8   217     7.2   1009.5    0.00 
 209    7:00   0.28   78.1    60    4.6   230     6.3   1009.5    0.00 
 209    7:10   0.32   79.0    57    4.8   233     5.8   1009.5    0.00 
 209    7:20   0.35   80.4    52    3.9   230     5.4   1009.5    0.00 
 209    7:30   0.38   81.6    48    1.6   237     3.7   1009.5    0.00 
 209    7:40   0.41   83.7    44    1.2   186     3.4   1009.5    0.00 
 209    7:50   0.45   86.0    42    0.9    13     2.2   1009.5    0.00 
 209    8:00   0.48   86.9    38    3.1    23     5.6   1009.5    0.00 
 209    8:10   0.51   85.9    36    5.1    21    10.4   1009.5    0.00 
 209    8:20   0.54   85.8    36    5.2    20     7.7   1009.5    0.00 
 209    8:30   0.57   85.6    37    6.0     8     7.9   1009.1    0.00 
 209    8:40   0.60   86.4    37    6.4   353    11.0   1009.1    0.00 
 209    8:50   0.62   87.1    37    6.9   358    10.4   1009.1    0.00 
 209    9:00   0.65   87.5    37    7.4   352    11.2   1009.1    0.00 

Return to Jepson Prairie Reserve graphs page.


Western Regional Climate Center,wrcc@dri.edu